Terminal Aerodrome Forecast
Issued by NWS

Current Version | Previous Version | Graphics & Text | Print | Product List | Glossary On
Versions: 1 2 3 4 5 6 7 8 9 10 11 12 13 14 15 16 17 18 19 20 21
000
FTUS41 KPBZ 302300 AAA
TAFMGW
TAF AMD
KMGW 302303Z 3023/3118 18007KT P6SM BKN080
      TEMPO 3023/3101 6SM -RA
     FM310300 21003KT P6SM SCT080=

USA.gov is the U.S. government's official web portal to all federal, state and local government web resources and services.